createdAt,value
2022-09-24T00:02:17.675Z,4.07
2022-09-24T00:04:44.160Z,3.08
2022-09-24T00:07:10.634Z,2.10
2022-09-24T00:09:37.386Z,5.68
2022-09-24T00:12:04.255Z,3.10
2022-09-24T00:14:30.755Z,1.90
2022-09-24T00:16:57.251Z,4.15
2022-09-24T00:19:23.742Z,6.00
2022-09-24T00:21:50.362Z,2.33
2022-09-24T00:24:35.690Z,2.47
2022-09-24T00:27:03.163Z,5.32
2022-09-24T00:29:32.091Z,3.78
2022-09-24T00:31:58.603Z,3.17
2022-09-24T00:34:25.144Z,5.68
2022-09-24T00:36:53.523Z,4.30
2022-09-24T00:39:20.062Z,4.38
2022-09-24T00:41:49.552Z,6.05
2022-09-24T00:44:34.361Z,2.22
2022-09-24T00:47:01.004Z,3.15
2022-09-24T00:49:27.572Z,2.33
2022-09-24T00:51:54.104Z,3.92
2022-09-24T00:54:23.064Z,2.78
2022-09-24T00:56:50.438Z,4.45
2022-09-24T00:59:18.196Z,3.17
2022-09-24T01:01:48.500Z,3.75
2022-09-24T01:04:16.313Z,2.58
2022-09-24T01:06:43.013Z,4.25
2022-09-24T01:09:09.696Z,2.92
2022-09-24T01:11:42.011Z,2.08
2022-09-24T01:14:10.788Z,1.60
2022-09-24T01:16:40.497Z,2.65
2022-09-24T01:19:18.563Z,1.20
2022-09-24T01:21:49.307Z,4.30
2022-09-24T01:24:26.200Z,5.07
2022-09-24T01:26:56.686Z,4.40
2022-09-24T01:29:23.326Z,4.22
2022-09-24T01:32:10.065Z,3.40
2022-09-24T01:34:45.288Z,4.93
2022-09-24T01:37:14.786Z,2.58
2022-09-24T01:39:42.852Z,3.20
2022-09-24T01:42:11.116Z,1.83
2022-09-24T01:44:39.862Z,3.13
2022-09-24T01:47:07.562Z,2.97
2022-09-24T01:49:34.019Z,3.28
2022-09-24T01:52:03.502Z,2.55
2022-09-24T01:54:35.796Z,3.63
2022-09-24T01:57:08.247Z,3.03
2022-09-24T01:59:37.612Z,4.47
2022-09-24T02:02:07.825Z,4.47
2022-09-24T02:04:38.085Z,4.32
2022-09-24T02:07:05.715Z,6.95
2022-09-24T02:09:33.833Z,4.30
2022-09-24T02:12:03.421Z,3.22
2022-09-24T02:14:31.633Z,2.65
2022-09-24T02:16:59.119Z,2.05
2022-09-24T02:19:28.015Z,3.65
2022-09-24T02:21:54.989Z,2.80
2022-09-24T02:24:27.920Z,2.40
2022-09-24T02:26:55.198Z,7.40
2022-09-24T02:29:21.927Z,7.90
2022-09-24T02:31:50.006Z,8.25
2022-09-24T02:34:21.637Z,1.27
2022-09-24T02:37:05.330Z,3.25
2022-09-24T02:39:31.918Z,1.23
2022-09-24T02:41:58.577Z,3.38
2022-09-24T02:44:25.243Z,3.50
2022-09-24T02:46:51.745Z,4.20
2022-09-24T02:49:18.418Z,3.53
2022-09-24T02:51:45.036Z,2.10
2022-09-24T02:54:11.549Z,2.65
2022-09-24T02:56:38.300Z,4.15
2022-09-24T02:59:04.838Z,5.63
2022-09-24T03:01:32.215Z,2.03
2022-09-24T03:03:58.780Z,2.95
2022-09-24T03:06:25.284Z,3.45
2022-09-24T03:08:53.533Z,1.63
2022-09-24T03:11:21.750Z,3.60
2022-09-24T03:13:48.492Z,2.15
2022-09-24T03:16:14.994Z,3.03
2022-09-24T03:18:41.552Z,6.82
2022-09-24T03:21:09.951Z,2.95
2022-09-24T03:23:36.739Z,1.35
2022-09-24T03:26:03.627Z,5.47
2022-09-24T03:28:30.199Z,4.00
2022-09-24T03:31:02.807Z,3.53
2022-09-24T03:33:29.365Z,1.15
2022-09-24T03:36:03.335Z,2.58
2022-09-24T03:40:57.046Z,4.22
2022-09-24T03:43:23.908Z,2.60
2022-09-24T03:45:50.643Z,2.63
2022-09-24T03:48:17.968Z,5.72
2022-09-24T03:50:44.498Z,1.98
2022-09-24T03:53:10.939Z,3.20
2022-09-24T03:55:42.030Z,1.70
2022-09-24T03:58:08.607Z,2.58
2022-09-24T04:00:40.261Z,2.90
2022-09-24T04:03:07.524Z,1.80
2022-09-24T04:05:34.290Z,2.85
2022-09-24T04:08:01.272Z,2.92
2022-09-24T04:10:28.279Z,3.63
2022-09-24T04:12:55.271Z,2.72
2022-09-24T04:15:23.198Z,3.92
2022-09-24T04:17:53.967Z,1.40
2022-09-24T04:20:23.769Z,4.25
2022-09-24T04:22:50.951Z,5.05
2022-09-24T04:25:17.622Z,5.10
2022-09-24T04:27:44.707Z,2.92
2022-09-24T04:30:13.179Z,3.28
2022-09-24T04:32:40.284Z,3.20
2022-09-24T04:35:07.849Z,2.97
2022-09-24T04:37:34.457Z,4.47
2022-09-24T04:40:00.963Z,4.45
2022-09-24T04:42:27.469Z,2.42
2022-09-24T04:44:56.103Z,4.30
2022-09-24T04:47:25.987Z,1.52
2022-09-24T04:49:52.716Z,3.88
2022-09-24T04:52:19.622Z,2.72
2022-09-24T04:54:47.086Z,1.17
2022-09-24T04:57:14.104Z,3.50
2022-09-24T04:59:41.103Z,3.45
2022-09-24T05:02:09.853Z,2.17
2022-09-24T05:04:37.454Z,5.93
2022-09-24T05:07:04.299Z,2.92
2022-09-24T05:09:32.169Z,3.15
2022-09-24T05:11:59.294Z,4.20
2022-09-24T05:14:26.068Z,3.90
2022-09-24T05:16:52.667Z,5.88
2022-09-24T05:19:19.389Z,2.45
2022-09-24T05:21:46.419Z,5.18
2022-09-24T05:24:12.920Z,2.10
2022-09-24T05:26:58.102Z,3.50
2022-09-24T05:29:25.072Z,5.30
2022-09-24T05:31:51.725Z,4.78
2022-09-24T05:34:18.329Z,5.70
2022-09-24T05:36:45.178Z,2.80
2022-09-24T05:39:12.751Z,4.78
2022-09-24T05:41:39.748Z,3.83
2022-09-24T05:44:06.322Z,2.83
2022-09-24T05:46:33.200Z,9.90
2022-09-24T05:48:59.778Z,2.60
2022-09-24T05:51:26.306Z,4.20
2022-09-24T05:53:52.860Z,2.15
2022-09-24T05:56:19.396Z,5.63
2022-09-24T05:58:48.550Z,4.30
2022-09-24T06:01:15.372Z,2.17
2022-09-24T06:03:41.876Z,3.42
2022-09-24T06:06:08.505Z,2.70
2022-09-24T06:08:35.030Z,2.35
2022-09-24T06:11:05.512Z,4.25
2022-09-24T06:13:35.225Z,5.72
2022-09-24T06:16:02.841Z,2.33
2022-09-24T06:18:29.712Z,2.65
2022-09-24T06:20:56.139Z,2.78
2022-09-24T06:23:22.799Z,3.78
2022-09-24T06:25:50.182Z,1.67
2022-09-24T06:28:16.797Z,2.97
2022-09-24T06:30:43.241Z,3.38
2022-09-24T06:33:13.243Z,4.82
2022-09-24T06:35:44.022Z,5.25
2022-09-24T06:38:12.165Z,3.35
2022-09-24T06:40:39.325Z,2.88
2022-09-24T06:43:06.909Z,3.35
2022-09-24T06:45:34.223Z,2.45
2022-09-24T06:48:01.454Z,3.33
2022-09-24T06:50:30.345Z,3.17
2022-09-24T06:52:57.690Z,5.18
2022-09-24T06:55:24.675Z,2.67
2022-09-24T06:57:51.609Z,3.88
2022-09-24T07:00:18.197Z,5.45
2022-09-24T07:02:51.272Z,1.77
2022-09-24T07:05:17.746Z,1.23
2022-09-24T07:07:44.228Z,2.03
2022-09-24T07:10:11.137Z,3.85
2022-09-24T07:12:37.610Z,2.63
2022-09-24T07:15:04.323Z,1.40
2022-09-24T07:17:33.914Z,1.95
2022-09-24T07:20:00.871Z,3.45
2022-09-24T07:22:27.352Z,1.65
2022-09-24T07:24:54.035Z,1.83
2022-09-24T07:27:21.443Z,4.82
2022-09-24T07:29:48.611Z,1.92
2022-09-24T07:32:18.142Z,3.75
2022-09-24T07:34:45.329Z,3.67
2022-09-24T07:37:12.086Z,6.25
2022-09-24T07:39:38.616Z,4.53
2022-09-24T07:42:05.545Z,2.65
2022-09-24T07:44:31.979Z,4.15
2022-09-24T07:46:58.559Z,3.85
2022-09-24T07:49:25.125Z,5.63
2022-09-24T07:51:51.601Z,2.65
2022-09-24T07:54:18.154Z,2.08
2022-09-24T07:56:44.768Z,3.17
2022-09-24T07:59:11.378Z,4.35
2022-09-24T08:01:38.060Z,1.40
2022-09-24T08:04:04.760Z,1.80
2022-09-24T08:06:38.319Z,2.17
2022-09-24T08:09:06.960Z,2.28
2022-09-24T08:11:33.618Z,5.57
2022-09-24T08:14:00.764Z,4.30
2022-09-24T08:16:27.351Z,2.95
2022-09-24T08:18:54.047Z,4.78
2022-09-24T08:21:20.554Z,5.60
2022-09-24T08:23:47.034Z,3.30
2022-09-24T08:26:13.993Z,1.48
2022-09-24T08:28:42.066Z,2.20
2022-09-24T08:31:11.341Z,2.67
2022-09-24T08:33:38.434Z,5.30
2022-09-24T08:36:06.434Z,4.72
2022-09-24T08:38:32.975Z,3.88
2022-09-24T08:41:11.737Z,2.30
2022-09-24T08:43:57.078Z,2.40
2022-09-24T08:46:55.010Z,3.05
2022-09-24T08:49:25.923Z,5.80
2022-09-24T08:52:03.905Z,10.25
2022-09-24T08:54:33.759Z,3.55
2022-09-24T08:57:03.120Z,3.95
2022-09-24T08:59:30.523Z,2.25
2022-09-24T09:02:18.686Z,4.40
2022-09-24T09:04:48.548Z,2.35
2022-09-24T09:07:20.516Z,0.98
2022-09-24T09:09:56.202Z,1.17
2022-09-24T09:12:43.773Z,2.38
2022-09-24T09:15:25.778Z,1.42
2022-09-24T09:17:52.295Z,3.38
2022-09-24T09:20:30.326Z,3.72
2022-09-24T09:23:00.438Z,2.20
2022-09-24T09:25:29.964Z,4.03
2022-09-24T09:28:17.439Z,3.53
2022-09-24T09:30:50.038Z,2.47
2022-09-24T09:33:19.678Z,2.13
2022-09-24T09:35:55.272Z,1.85
2022-09-24T09:38:25.170Z,5.85
2022-09-24T09:41:11.874Z,5.18
2022-09-24T09:43:38.652Z,5.18
2022-09-24T09:46:09.654Z,0.90
2022-09-24T09:48:47.562Z,4.03
2022-09-24T09:51:22.300Z,4.57
2022-09-24T09:53:59.763Z,3.20
2022-09-24T09:56:30.801Z,3.30
2022-09-24T09:59:07.076Z,0.88
2022-09-24T10:01:34.978Z,1.92
2022-09-24T10:04:05.369Z,2.47
2022-09-24T10:06:33.377Z,2.50
2022-09-24T10:09:13.918Z,2.60
2022-09-24T10:11:40.742Z,3.25
2022-09-24T10:14:10.331Z,2.83
2022-09-24T10:16:41.145Z,4.88
2022-09-24T10:19:27.639Z,2.58
2022-09-24T10:21:55.719Z,2.72
2022-09-24T10:24:23.476Z,2.47
2022-09-24T10:26:50.396Z,3.97
2022-09-24T10:29:37.505Z,3.80
2022-09-24T10:32:04.999Z,4.93
2022-09-24T10:34:31.633Z,3.33
2022-09-24T10:37:07.254Z,4.75
2022-09-24T10:39:36.816Z,1.65
2022-09-24T10:42:03.309Z,2.35
2022-09-24T10:44:36.898Z,2.00
2022-09-24T10:47:10.160Z,2.80
2022-09-24T10:49:55.618Z,3.70
2022-09-24T10:52:41.250Z,1.20
2022-09-24T10:55:26.640Z,3.10
2022-09-24T10:57:59.555Z,2.13
2022-09-24T11:00:49.139Z,2.13
2022-09-24T11:03:15.701Z,2.25
2022-09-24T11:05:45.512Z,3.08
2022-09-24T11:08:11.929Z,3.28
2022-09-24T11:10:42.754Z,2.05
2022-09-24T11:13:24.807Z,1.08
2022-09-24T11:16:06.382Z,2.67
2022-09-24T11:18:45.983Z,4.65
2022-09-24T11:21:21.585Z,2.45
2022-09-24T11:23:48.132Z,4.75
2022-09-24T11:26:14.614Z,3.45
2022-09-24T11:28:59.144Z,3.13
2022-09-24T11:31:31.712Z,1.83
2022-09-24T11:34:16.873Z,5.78
2022-09-24T11:37:15.885Z,1.92
2022-09-24T11:39:52.129Z,2.83
2022-09-24T11:42:20.667Z,5.18
2022-09-24T11:44:57.166Z,7.57
2022-09-24T11:47:26.269Z,3.30
2022-09-24T11:50:01.683Z,1.67
2022-09-24T11:52:28.103Z,3.80
2022-09-24T11:54:54.514Z,4.03
2022-09-24T11:57:22.781Z,3.17
2022-09-24T12:00:12.299Z,2.65
2022-09-24T12:02:46.327Z,5.75
2022-09-24T12:05:19.487Z,3.05
2022-09-24T12:08:07.557Z,3.57
2022-09-24T12:10:39.907Z,5.72
2022-09-24T12:13:13.220Z,3.45
2022-09-24T12:15:44.865Z,4.75
2022-09-24T12:18:17.311Z,1.55
2022-09-24T12:20:52.199Z,3.03
2022-09-24T12:23:21.631Z,1.73
2022-09-24T12:25:49.445Z,5.57
2022-09-24T12:28:37.575Z,6.50
2022-09-24T12:31:25.700Z,1.92
2022-09-24T12:34:00.036Z,1.10
2022-09-24T12:36:32.526Z,3.00
2022-09-24T12:39:10.999Z,2.95
2022-09-24T12:41:40.309Z,2.55
2022-09-24T12:44:09.935Z,2.10
2022-09-24T12:46:53.873Z,3.03
2022-09-24T12:49:23.246Z,4.30
2022-09-24T12:51:49.818Z,1.77
2022-09-24T12:54:28.640Z,2.03
2022-09-24T12:57:10.870Z,4.35
2022-09-24T12:59:51.373Z,2.58
2022-09-24T13:02:25.843Z,6.82
2022-09-24T13:05:01.602Z,4.40
2022-09-24T13:07:34.174Z,6.22
2022-09-24T13:10:16.023Z,2.53
2022-09-24T13:12:42.998Z,3.20
2022-09-24T13:15:32.603Z,3.33
2022-09-24T13:18:11.330Z,5.55
2022-09-24T13:20:38.886Z,9.57
2022-09-24T13:23:14.979Z,4.38
2022-09-24T13:25:41.917Z,0.70
2022-09-24T13:28:22.466Z,3.90
2022-09-24T13:31:03.609Z,3.47
2022-09-24T13:33:32.056Z,2.78
2022-09-24T13:36:03.424Z,2.33
2022-09-24T13:38:42.323Z,2.70
2022-09-24T13:41:26.838Z,1.38
2022-09-24T13:44:04.982Z,1.88
2022-09-24T13:46:32.198Z,2.03
2022-09-24T13:49:01.992Z,2.20
2022-09-24T13:51:29.963Z,2.30
2022-09-24T13:54:08.686Z,4.35
2022-09-24T13:56:35.196Z,5.38
2022-09-24T13:59:12.445Z,3.22
2022-09-24T14:01:43.414Z,3.65
2022-09-24T14:04:22.832Z,2.00
2022-09-24T14:06:53.709Z,3.67
2022-09-24T14:09:23.227Z,9.23
2022-09-24T14:11:53.807Z,3.92
2022-09-24T14:14:21.283Z,4.55
2022-09-24T14:16:47.836Z,4.70
2022-09-24T14:19:15.665Z,6.60
2022-09-24T14:21:47.788Z,3.83
2022-09-24T14:24:17.986Z,3.85
2022-09-24T14:26:49.012Z,5.32
2022-09-24T14:29:20.395Z,4.32
2022-09-24T14:31:48.375Z,5.28
2022-09-24T14:34:38.368Z,6.38
2022-09-24T14:37:19.892Z,4.20
2022-09-24T14:39:47.667Z,5.22
2022-09-24T14:42:20.896Z,5.40
2022-09-24T14:44:47.471Z,5.57
2022-09-24T14:47:25.339Z,4.15
2022-09-24T14:49:51.863Z,4.18
2022-09-24T14:52:40.097Z,1.75
2022-09-24T14:55:17.106Z,3.00
2022-09-24T14:57:48.274Z,2.83
2022-09-24T15:00:26.746Z,5.78
2022-09-24T15:02:58.296Z,5.18
2022-09-24T15:05:26.319Z,5.72
2022-09-24T15:08:13.072Z,2.88
2022-09-24T15:10:43.627Z,2.15
2022-09-24T15:13:14.424Z,4.07
2022-09-24T15:15:41.185Z,3.75
2022-09-24T15:18:10.980Z,7.55
2022-09-24T15:20:37.683Z,3.58
2022-09-24T15:23:04.134Z,3.08
2022-09-24T15:25:30.572Z,2.17
2022-09-24T15:27:57.737Z,5.50
2022-09-24T15:30:24.429Z,2.55
2022-09-24T15:32:51.299Z,4.50
2022-09-24T15:35:17.909Z,5.10
2022-09-24T15:37:44.807Z,2.47
2022-09-24T15:40:23.018Z,3.22
2022-09-24T15:42:50.398Z,4.97
2022-09-24T15:45:18.508Z,2.92
2022-09-24T15:47:45.274Z,3.47
2022-09-24T15:50:12.239Z,3.40
2022-09-24T15:52:42.729Z,4.60
2022-09-24T15:55:13.684Z,3.85
2022-09-24T15:57:40.135Z,5.38
2022-09-24T16:00:07.226Z,5.25
2022-09-24T16:02:34.922Z,3.97
2022-09-24T16:05:03.891Z,6.95
2022-09-24T16:07:30.836Z,5.32
2022-09-24T16:09:57.380Z,3.92
2022-09-24T16:12:28.130Z,5.70
2022-09-24T16:14:59.022Z,4.82
2022-09-24T16:17:25.791Z,6.10
2022-09-24T16:19:52.235Z,5.60
2022-09-24T16:22:20.700Z,7.18
2022-09-24T16:24:47.359Z,4.18
2022-09-24T16:27:13.810Z,5.05
2022-09-24T16:29:40.313Z,4.32
2022-09-24T16:32:06.757Z,10.63
2022-09-24T16:34:33.292Z,3.63
2022-09-24T16:36:59.795Z,6.97
2022-09-24T16:39:26.302Z,2.95
2022-09-24T16:41:53.007Z,5.82
2022-09-24T16:44:19.509Z,5.55
2022-09-24T16:46:46.501Z,7.80
2022-09-24T16:49:13.116Z,7.93
2022-09-24T16:51:39.713Z,3.90
2022-09-24T16:54:06.213Z,2.65
2022-09-24T16:56:32.671Z,3.63
2022-09-24T16:58:59.143Z,7.45
2022-09-24T17:01:25.668Z,5.97
2022-09-24T17:03:52.689Z,6.85
2022-09-24T17:06:24.063Z,3.28
2022-09-24T17:09:09.597Z,9.13
2022-09-24T17:11:36.306Z,5.63
2022-09-24T17:14:02.772Z,6.80
2022-09-24T17:16:29.807Z,6.57
2022-09-24T17:18:56.276Z,3.67
2022-09-24T17:21:23.100Z,6.47
2022-09-24T17:23:50.234Z,3.90
2022-09-24T17:26:18.068Z,7.05
2022-09-24T17:28:45.617Z,5.25
2022-09-24T17:31:13.181Z,4.50
2022-09-24T17:33:43.506Z,5.38
2022-09-24T17:36:12.225Z,5.40
2022-09-24T17:38:38.918Z,4.40
2022-09-24T17:41:06.611Z,7.35
2022-09-24T17:43:33.350Z,3.35
2022-09-24T17:46:02.154Z,8.48
2022-09-24T17:48:30.708Z,7.40
2022-09-24T17:50:57.848Z,5.00
2022-09-24T17:53:24.776Z,5.40
2022-09-24T17:55:51.870Z,6.50
2022-09-24T17:58:19.277Z,8.27
2022-09-24T18:00:45.928Z,4.28
2022-09-24T18:03:12.596Z,5.40
2022-09-24T18:05:39.192Z,8.32
2022-09-24T18:08:05.685Z,9.05
2022-09-24T18:10:32.639Z,5.53
2022-09-24T18:12:59.347Z,6.32
2022-09-24T18:15:26.500Z,9.63
2022-09-24T18:17:53.500Z,5.85
2022-09-24T18:20:20.536Z,7.72
2022-09-24T18:22:47.088Z,5.15
2022-09-24T18:25:13.880Z,5.30
2022-09-24T18:27:40.807Z,4.53
2022-09-24T18:30:11.052Z,9.38
2022-09-24T18:32:39.516Z,5.65
2022-09-24T18:35:08.208Z,5.35
2022-09-24T18:37:35.107Z,8.40
2022-09-24T18:40:02.559Z,7.68
2022-09-24T18:42:29.160Z,5.28
2022-09-24T18:44:55.645Z,5.30
2022-09-24T18:47:22.135Z,4.20
2022-09-24T18:49:49.436Z,6.35
2022-09-24T18:52:15.953Z,8.50
2022-09-24T18:54:42.507Z,8.20
2022-09-24T18:57:08.979Z,8.55
2022-09-24T18:59:44.248Z,11.02
2022-09-24T19:02:14.455Z,8.57
2022-09-24T19:04:41.478Z,6.63
2022-09-24T19:07:08.577Z,6.38
2022-09-24T19:09:35.622Z,8.40
2022-09-24T19:12:02.826Z,7.50
2022-09-24T19:14:29.291Z,7.53
2022-09-24T19:16:57.108Z,9.90
2022-09-24T19:19:26.928Z,9.65
2022-09-24T19:21:53.540Z,8.30
2022-09-24T19:24:20.026Z,7.80
2022-09-24T19:26:46.563Z,11.98
2022-09-24T19:29:13.203Z,9.40
2022-09-24T19:31:41.053Z,8.45
2022-09-24T19:34:08.301Z,8.00
2022-09-24T19:36:43.842Z,7.30
2022-09-24T19:39:12.175Z,10.70
2022-09-24T19:41:38.712Z,5.90
2022-09-24T19:44:08.865Z,14.20
2022-09-24T19:46:37.202Z,6.55
2022-09-24T19:49:04.087Z,8.02
2022-09-24T19:51:34.055Z,14.48
2022-09-24T19:54:06.458Z,8.93
2022-09-24T19:56:33.426Z,5.55
2022-09-24T19:59:00.815Z,6.07
2022-09-24T20:01:28.528Z,6.28
2022-09-24T20:03:55.474Z,10.93
2022-09-24T20:06:25.371Z,25.55
2022-09-24T20:08:52.287Z,14.45
2022-09-24T20:11:20.916Z,12.32
2022-09-24T20:13:52.005Z,9.68
2022-09-24T20:16:20.088Z,14.27
2022-09-24T20:18:47.543Z,7.80
2022-09-24T20:21:14.078Z,7.85
2022-09-24T20:23:40.748Z,6.80
2022-09-24T20:26:26.424Z,10.00
2022-09-24T20:28:52.982Z,9.35
2022-09-24T20:31:22.662Z,6.80
2022-09-24T20:33:49.680Z,7.15
2022-09-24T20:36:18.851Z,9.88
2022-09-24T20:38:48.654Z,9.90
2022-09-24T20:41:16.484Z,10.75
2022-09-24T20:43:43.519Z,7.78
2022-09-24T20:46:13.619Z,9.00
2022-09-24T20:48:40.567Z,11.95
2022-09-24T20:51:08.122Z,7.57
2022-09-24T20:53:35.395Z,14.02
2022-09-24T20:56:02.133Z,7.43
2022-09-24T20:58:28.697Z,8.70
2022-09-24T21:00:55.180Z,7.20
2022-09-24T21:03:42.719Z,7.45
2022-09-24T21:06:09.478Z,6.32
2022-09-24T21:08:37.196Z,10.57
2022-09-24T21:11:05.498Z,7.03
2022-09-24T21:13:33.206Z,10.93
2022-09-24T21:16:03.505Z,9.63
2022-09-24T21:18:39.903Z,7.88
2022-09-24T21:21:08.481Z,6.57
2022-09-24T21:23:36.304Z,7.88
2022-09-24T21:26:09.901Z,5.95
2022-09-24T21:28:36.816Z,7.70
2022-09-24T21:31:03.925Z,9.27
2022-09-24T21:33:31.207Z,8.52
2022-09-24T21:36:00.340Z,9.23
2022-09-24T21:38:26.800Z,7.78
2022-09-24T21:40:54.035Z,6.35
2022-09-24T21:43:23.667Z,6.45
2022-09-24T21:45:52.728Z,6.43
2022-09-24T21:48:19.474Z,5.90
2022-09-24T21:50:46.051Z,12.52
2022-09-24T21:53:12.705Z,7.03
2022-09-24T21:55:39.274Z,5.43
2022-09-24T21:58:05.774Z,11.00
2022-09-24T22:00:32.311Z,5.93
2022-09-24T22:02:58.817Z,8.07
2022-09-24T22:05:25.347Z,9.55
2022-09-24T22:07:51.893Z,9.25
2022-09-24T22:10:18.329Z,6.18
2022-09-24T22:12:45.860Z,7.53
2022-09-24T22:15:12.322Z,6.50
2022-09-24T22:17:38.772Z,6.95
2022-09-24T22:20:06.054Z,9.18
2022-09-24T22:22:32.618Z,6.65
2022-09-24T22:24:59.152Z,8.10
2022-09-24T22:27:25.666Z,6.85
2022-09-24T22:29:52.104Z,11.60
2022-09-24T22:32:18.613Z,11.73
2022-09-24T22:35:03.864Z,6.85
2022-09-24T22:37:31.111Z,12.07
2022-09-24T22:39:57.743Z,8.52
2022-09-24T22:42:24.166Z,9.55
2022-09-24T22:44:50.622Z,9.38
2022-09-24T22:47:17.086Z,5.00
2022-09-24T22:49:43.526Z,10.35
2022-09-24T22:52:09.964Z,9.30
2022-09-24T22:54:36.621Z,14.18
2022-09-24T22:57:03.081Z,8.75
2022-09-24T22:59:29.551Z,12.00
2022-09-24T23:01:56.032Z,11.23
2022-09-24T23:04:22.846Z,6.30
2022-09-24T23:06:49.436Z,11.25
2022-09-24T23:09:16.007Z,17.40
2022-09-24T23:11:42.503Z,8.05
2022-09-24T23:14:15.906Z,4.30
2022-09-24T23:16:43.088Z,6.57
2022-09-24T23:19:15.184Z,11.15
2022-09-24T23:21:41.713Z,9.10
2022-09-24T23:24:16.298Z,4.78
2022-09-24T23:26:43.244Z,5.88
2022-09-24T23:29:09.989Z,8.52
2022-09-24T23:31:37.110Z,9.10
2022-09-24T23:34:04.419Z,8.52
2022-09-24T23:36:31.937Z,9.85
2022-09-24T23:38:59.047Z,7.75
2022-09-24T23:41:26.182Z,6.90
2022-09-24T23:43:52.644Z,8.40
2022-09-24T23:46:19.154Z,9.48
2022-09-24T23:48:45.692Z,5.35
2022-09-24T23:51:12.155Z,10.57
2022-09-24T23:53:38.702Z,7.88
2022-09-24T23:56:06.322Z,6.55
2022-09-24T23:58:32.784Z,9.60
